sensor_id;sensor_type;location;lat;lon;timestamp;P1;durP1;ratioP1;P2;durP2;ratioP2
12359;SDS011;6244;51.460;7.090;2023-07-24T00:01:47;6.80;;;3.47;;
12359;SDS011;6244;51.460;7.090;2023-07-24T00:06:43;5.85;;;3.50;;
12359;SDS011;6244;51.460;7.090;2023-07-24T00:11:40;5.60;;;4.03;;
12359;SDS011;6244;51.460;7.090;2023-07-24T00:16:36;4.85;;;3.13;;
12359;SDS011;6244;51.460;7.090;2023-07-24T00:21:34;5.22;;;3.42;;
12359;SDS011;6244;51.460;7.090;2023-07-24T00:26:31;6.50;;;3.78;;
12359;SDS011;6244;51.460;7.090;2023-07-24T00:31:27;6.45;;;3.60;;
12359;SDS011;6244;51.460;7.090;2023-07-24T00:36:24;5.68;;;3.90;;
12359;SDS011;6244;51.460;7.090;2023-07-24T00:41:21;5.70;;;3.50;;
12359;SDS011;6244;51.460;7.090;2023-07-24T00:46:18;5.90;;;3.20;;
12359;SDS011;6244;51.460;7.090;2023-07-24T00:51:15;5.50;;;3.60;;
12359;SDS011;6244;51.460;7.090;2023-07-24T00:56:12;4.78;;;3.35;;
12359;SDS011;6244;51.460;7.090;2023-07-24T01:01:10;6.90;;;3.40;;
12359;SDS011;6244;51.460;7.090;2023-07-24T01:06:07;6.40;;;3.65;;
12359;SDS011;6244;51.460;7.090;2023-07-24T01:11:05;6.57;;;4.05;;
12359;SDS011;6244;51.460;7.090;2023-07-24T01:16:07;5.32;;;3.75;;
12359;SDS011;6244;51.460;7.090;2023-07-24T01:21:08;7.10;;;4.00;;
12359;SDS011;6244;51.460;7.090;2023-07-24T01:26:08;6.68;;;3.80;;
12359;SDS011;6244;51.460;7.090;2023-07-24T01:31:05;7.20;;;3.85;;
12359;SDS011;6244;51.460;7.090;2023-07-24T01:36:02;6.68;;;4.13;;
12359;SDS011;6244;51.460;7.090;2023-07-24T01:41:00;6.00;;;4.05;;
12359;SDS011;6244;51.460;7.090;2023-07-24T01:45:58;7.07;;;4.00;;
12359;SDS011;6244;51.460;7.090;2023-07-24T01:50:55;5.60;;;3.97;;
12359;SDS011;6244;51.460;7.090;2023-07-24T01:55:51;4.93;;;3.20;;
12359;SDS011;6244;51.460;7.090;2023-07-24T02:00:48;5.82;;;3.92;;
12359;SDS011;6244;51.460;7.090;2023-07-24T02:05:50;6.70;;;4.03;;
12359;SDS011;6244;51.460;7.090;2023-07-24T02:10:48;8.80;;;4.17;;
12359;SDS011;6244;51.460;7.090;2023-07-24T02:15:44;6.35;;;3.92;;
12359;SDS011;6244;51.460;7.090;2023-07-24T02:20:41;7.40;;;3.95;;
12359;SDS011;6244;51.460;7.090;2023-07-24T02:25:39;5.95;;;3.72;;
12359;SDS011;6244;51.460;7.090;2023-07-24T02:30:37;5.63;;;3.80;;
12359;SDS011;6244;51.460;7.090;2023-07-24T02:35:38;11.05;;;4.55;;
12359;SDS011;6244;51.460;7.090;2023-07-24T02:40:35;6.50;;;4.20;;
12359;SDS011;6244;51.460;7.090;2023-07-24T02:45:34;9.25;;;4.00;;
12359;SDS011;6244;51.460;7.090;2023-07-24T02:50:32;7.15;;;4.22;;
12359;SDS011;6244;51.460;7.090;2023-07-24T02:55:29;8.18;;;4.45;;
12359;SDS011;6244;51.460;7.090;2023-07-24T03:00:26;6.95;;;4.25;;
12359;SDS011;6244;51.460;7.090;2023-07-24T03:05:24;10.88;;;4.55;;
12359;SDS011;6244;51.460;7.090;2023-07-24T03:10:22;8.88;;;4.22;;
12359;SDS011;6244;51.460;7.090;2023-07-24T03:15:18;7.28;;;4.28;;
12359;SDS011;6244;51.460;7.090;2023-07-24T03:20:16;7.88;;;4.40;;
12359;SDS011;6244;51.460;7.090;2023-07-24T03:25:16;6.85;;;4.30;;
12359;SDS011;6244;51.460;7.090;2023-07-24T03:30:13;9.07;;;4.38;;
12359;SDS011;6244;51.460;7.090;2023-07-24T03:35:09;9.07;;;5.00;;
12359;SDS011;6244;51.460;7.090;2023-07-24T03:40:06;8.23;;;4.78;;
12359;SDS011;6244;51.460;7.090;2023-07-24T03:45:05;6.95;;;4.85;;
12359;SDS011;6244;51.460;7.090;2023-07-24T03:50:03;9.70;;;5.18;;
12359;SDS011;6244;51.460;7.090;2023-07-24T03:55:01;10.35;;;5.55;;
12359;SDS011;6244;51.460;7.090;2023-07-24T03:59:57;11.07;;;4.97;;
12359;SDS011;6244;51.460;7.090;2023-07-24T04:04:55;8.07;;;4.97;;
12359;SDS011;6244;51.460;7.090;2023-07-24T04:09:52;12.23;;;5.25;;
12359;SDS011;6244;51.460;7.090;2023-07-24T04:14:49;8.68;;;5.28;;
12359;SDS011;6244;51.460;7.090;2023-07-24T04:19:45;7.78;;;4.60;;
12359;SDS011;6244;51.460;7.090;2023-07-24T04:24:43;7.68;;;4.97;;
12359;SDS011;6244;51.460;7.090;2023-07-24T04:29:40;8.45;;;5.13;;
12359;SDS011;6244;51.460;7.090;2023-07-24T04:34:36;8.95;;;5.07;;
12359;SDS011;6244;51.460;7.090;2023-07-24T04:39:33;10.50;;;5.53;;
12359;SDS011;6244;51.460;7.090;2023-07-24T04:44:31;9.75;;;5.55;;
12359;SDS011;6244;51.460;7.090;2023-07-24T04:49:28;8.63;;;5.75;;
12359;SDS011;6244;51.460;7.090;2023-07-24T04:54:25;10.35;;;5.45;;
12359;SDS011;6244;51.460;7.090;2023-07-24T04:59:21;9.90;;;5.10;;
12359;SDS011;6244;51.460;7.090;2023-07-24T05:04:20;8.52;;;5.25;;
12359;SDS011;6244;51.460;7.090;2023-07-24T05:09:16;8.38;;;4.95;;
12359;SDS011;6244;51.460;7.090;2023-07-24T05:14:13;8.10;;;5.38;;
12359;SDS011;6244;51.460;7.090;2023-07-24T05:19:09;11.85;;;5.75;;
12359;SDS011;6244;51.460;7.090;2023-07-24T05:24:07;9.75;;;5.38;;
12359;SDS011;6244;51.460;7.090;2023-07-24T05:29:04;9.77;;;4.95;;
12359;SDS011;6244;51.460;7.090;2023-07-24T05:34:00;11.13;;;5.65;;
12359;SDS011;6244;51.460;7.090;2023-07-24T05:38:58;10.10;;;5.78;;
12359;SDS011;6244;51.460;7.090;2023-07-24T05:43:56;11.50;;;5.38;;
12359;SDS011;6244;51.460;7.090;2023-07-24T05:48:53;7.85;;;5.13;;
12359;SDS011;6244;51.460;7.090;2023-07-24T05:53:49;11.30;;;5.15;;
12359;SDS011;6244;51.460;7.090;2023-07-24T05:58:46;11.48;;;5.60;;
12359;SDS011;6244;51.460;7.090;2023-07-24T06:03:43;9.60;;;5.47;;
12359;SDS011;6244;51.460;7.090;2023-07-24T06:08:40;9.18;;;6.07;;
12359;SDS011;6244;51.460;7.090;2023-07-24T06:13:36;9.95;;;5.80;;
12359;SDS011;6244;51.460;7.090;2023-07-24T06:18:33;11.07;;;6.20;;
12359;SDS011;6244;51.460;7.090;2023-07-24T06:23:31;9.07;;;5.25;;
12359;SDS011;6244;51.460;7.090;2023-07-24T06:28:27;11.02;;;5.47;;
12359;SDS011;6244;51.460;7.090;2023-07-24T06:33:24;8.15;;;6.00;;
12359;SDS011;6244;51.460;7.090;2023-07-24T06:38:21;9.38;;;5.07;;
12359;SDS011;6244;51.460;7.090;2023-07-24T06:43:19;8.73;;;5.30;;
12359;SDS011;6244;51.460;7.090;2023-07-24T06:48:16;11.82;;;6.13;;
12359;SDS011;6244;51.460;7.090;2023-07-24T06:53:19;9.48;;;5.00;;
12359;SDS011;6244;51.460;7.090;2023-07-24T06:58:16;8.23;;;4.82;;
12359;SDS011;6244;51.460;7.090;2023-07-24T07:03:13;10.10;;;4.63;;
12359;SDS011;6244;51.460;7.090;2023-07-24T07:08:10;8.55;;;4.63;;
12359;SDS011;6244;51.460;7.090;2023-07-24T07:13:06;7.93;;;5.30;;
12359;SDS011;6244;51.460;7.090;2023-07-24T07:18:03;7.15;;;5.10;;
12359;SDS011;6244;51.460;7.090;2023-07-24T07:23:01;7.50;;;4.88;;
12359;SDS011;6244;51.460;7.090;2023-07-24T07:27:57;11.30;;;4.40;;
12359;SDS011;6244;51.460;7.090;2023-07-24T07:32:54;8.95;;;4.78;;
12359;SDS011;6244;51.460;7.090;2023-07-24T07:37:51;8.50;;;4.53;;
12359;SDS011;6244;51.460;7.090;2023-07-24T07:42:49;9.70;;;5.75;;
12359;SDS011;6244;51.460;7.090;2023-07-24T07:47:45;8.43;;;4.78;;
12359;SDS011;6244;51.460;7.090;2023-07-24T07:52:42;8.73;;;4.30;;
12359;SDS011;6244;51.460;7.090;2023-07-24T07:57:39;10.35;;;4.35;;
12359;SDS011;6244;51.460;7.090;2023-07-24T08:02:37;6.25;;;4.55;;
12359;SDS011;6244;51.460;7.090;2023-07-24T08:07:34;7.88;;;4.13;;
12359;SDS011;6244;51.460;7.090;2023-07-24T08:12:31;6.63;;;3.85;;
12359;SDS011;6244;51.460;7.090;2023-07-24T08:17:28;6.82;;;4.43;;
12359;SDS011;6244;51.460;7.090;2023-07-24T08:22:26;7.45;;;4.03;;
12359;SDS011;6244;51.460;7.090;2023-07-24T08:27:22;5.45;;;3.50;;
12359;SDS011;6244;51.460;7.090;2023-07-24T08:32:19;5.75;;;3.72;;
12359;SDS011;6244;51.460;7.090;2023-07-24T08:37:15;5.72;;;3.53;;
12359;SDS011;6244;51.460;7.090;2023-07-24T08:42:13;6.63;;;4.03;;
12359;SDS011;6244;51.460;7.090;2023-07-24T08:47:10;6.60;;;4.28;;
12359;SDS011;6244;51.460;7.090;2023-07-24T08:52:08;6.05;;;3.83;;
12359;SDS011;6244;51.460;7.090;2023-07-24T08:57:07;5.13;;;3.60;;
12359;SDS011;6244;51.460;7.090;2023-07-24T09:02:05;6.00;;;3.78;;
12359;SDS011;6244;51.460;7.090;2023-07-24T09:07:02;5.80;;;3.78;;
12359;SDS011;6244;51.460;7.090;2023-07-24T09:11:59;4.43;;;3.20;;
12359;SDS011;6244;51.460;7.090;2023-07-24T09:17:02;5.50;;;3.20;;
12359;SDS011;6244;51.460;7.090;2023-07-24T09:22:11;3.88;;;2.88;;
12359;SDS011;6244;51.460;7.090;2023-07-24T09:27:09;4.20;;;2.85;;
12359;SDS011;6244;51.460;7.090;2023-07-24T09:32:08;4.22;;;2.58;;
12359;SDS011;6244;51.460;7.090;2023-07-24T09:37:22;3.95;;;2.90;;
12359;SDS011;6244;51.460;7.090;2023-07-24T09:42:27;3.85;;;2.60;;
12359;SDS011;6244;51.460;7.090;2023-07-24T09:47:25;3.78;;;2.90;;
12359;SDS011;6244;51.460;7.090;2023-07-24T09:52:22;6.25;;;3.55;;
12359;SDS011;6244;51.460;7.090;2023-07-24T09:57:20;5.18;;;3.08;;
12359;SDS011;6244;51.460;7.090;2023-07-24T10:02:17;9.23;;;3.97;;
12359;SDS011;6244;51.460;7.090;2023-07-24T10:07:16;4.75;;;3.13;;
12359;SDS011;6244;51.460;7.090;2023-07-24T10:12:16;7.30;;;3.60;;
12359;SDS011;6244;51.460;7.090;2023-07-24T10:17:14;4.68;;;3.38;;
12359;SDS011;6244;51.460;7.090;2023-07-24T10:22:21;5.47;;;3.58;;
12359;SDS011;6244;51.460;7.090;2023-07-24T10:27:22;5.35;;;3.67;;
12359;SDS011;6244;51.460;7.090;2023-07-24T10:32:19;5.10;;;3.50;;
12359;SDS011;6244;51.460;7.090;2023-07-24T10:37:17;7.35;;;3.65;;
12359;SDS011;6244;51.460;7.090;2023-07-24T10:42:15;6.03;;;3.97;;
12359;SDS011;6244;51.460;7.090;2023-07-24T10:47:18;5.80;;;4.00;;
12359;SDS011;6244;51.460;7.090;2023-07-24T10:52:15;6.30;;;3.83;;
12359;SDS011;6244;51.460;7.090;2023-07-24T10:57:12;6.50;;;4.20;;
12359;SDS011;6244;51.460;7.090;2023-07-24T11:02:10;6.35;;;3.80;;
12359;SDS011;6244;51.460;7.090;2023-07-24T11:07:08;7.18;;;3.92;;
12359;SDS011;6244;51.460;7.090;2023-07-24T11:12:09;6.75;;;3.88;;
12359;SDS011;6244;51.460;7.090;2023-07-24T11:17:06;5.55;;;3.70;;
12359;SDS011;6244;51.460;7.090;2023-07-24T11:22:04;7.82;;;4.45;;
12359;SDS011;6244;51.460;7.090;2023-07-24T11:27:08;7.00;;;3.92;;
12359;SDS011;6244;51.460;7.090;2023-07-24T11:37:02;6.18;;;4.35;;
12359;SDS011;6244;51.460;7.090;2023-07-24T11:42:00;6.03;;;4.43;;
12359;SDS011;6244;51.460;7.090;2023-07-24T11:47:00;11.52;;;4.72;;
12359;SDS011;6244;51.460;7.090;2023-07-24T11:52:01;6.90;;;4.32;;
12359;SDS011;6244;51.460;7.090;2023-07-24T11:57:00;6.68;;;4.53;;
12359;SDS011;6244;51.460;7.090;2023-07-24T12:01:57;6.68;;;3.80;;
12359;SDS011;6244;51.460;7.090;2023-07-24T12:06:54;7.90;;;2.90;;
12359;SDS011;6244;51.460;7.090;2023-07-24T12:11:50;7.28;;;2.78;;
12359;SDS011;6244;51.460;7.090;2023-07-24T12:16:48;3.30;;;2.10;;
12359;SDS011;6244;51.460;7.090;2023-07-24T12:21:45;4.75;;;2.78;;
12359;SDS011;6244;51.460;7.090;2023-07-24T12:26:41;5.25;;;2.60;;
12359;SDS011;6244;51.460;7.090;2023-07-24T12:31:38;4.18;;;2.42;;
12359;SDS011;6244;51.460;7.090;2023-07-24T12:36:35;3.38;;;2.10;;
12359;SDS011;6244;51.460;7.090;2023-07-24T12:41:32;4.00;;;2.90;;
12359;SDS011;6244;51.460;7.090;2023-07-24T12:46:29;4.90;;;2.20;;
12359;SDS011;6244;51.460;7.090;2023-07-24T12:51:25;4.95;;;2.30;;
12359;SDS011;6244;51.460;7.090;2023-07-24T12:56:23;5.05;;;2.72;;
12359;SDS011;6244;51.460;7.090;2023-07-24T13:01:20;3.17;;;2.05;;
12359;SDS011;6244;51.460;7.090;2023-07-24T13:06:16;3.30;;;2.13;;
12359;SDS011;6244;51.460;7.090;2023-07-24T13:11:13;3.00;;;1.83;;
12359;SDS011;6244;51.460;7.090;2023-07-24T13:16:11;4.38;;;2.40;;
12359;SDS011;6244;51.460;7.090;2023-07-24T13:21:07;4.53;;;2.45;;
12359;SDS011;6244;51.460;7.090;2023-07-24T13:26:05;4.20;;;2.28;;
12359;SDS011;6244;51.460;7.090;2023-07-24T13:31:12;3.13;;;2.00;;
12359;SDS011;6244;51.460;7.090;2023-07-24T13:36:09;2.95;;;2.40;;
12359;SDS011;6244;51.460;7.090;2023-07-24T13:41:06;4.18;;;2.80;;
12359;SDS011;6244;51.460;7.090;2023-07-24T13:46:03;3.92;;;2.90;;
12359;SDS011;6244;51.460;7.090;2023-07-24T13:51:03;4.25;;;2.95;;
12359;SDS011;6244;51.460;7.090;2023-07-24T13:56:01;4.32;;;2.75;;
12359;SDS011;6244;51.460;7.090;2023-07-24T14:00:57;4.57;;;2.70;;
12359;SDS011;6244;51.460;7.090;2023-07-24T14:05:55;3.92;;;3.03;;
12359;SDS011;6244;51.460;7.090;2023-07-24T14:10:54;4.70;;;3.00;;
12359;SDS011;6244;51.460;7.090;2023-07-24T14:15:50;4.47;;;3.47;;
12359;SDS011;6244;51.460;7.090;2023-07-24T14:20:47;5.75;;;3.17;;
12359;SDS011;6244;51.460;7.090;2023-07-24T14:25:43;5.05;;;3.35;;
12359;SDS011;6244;51.460;7.090;2023-07-24T14:30:41;4.30;;;3.10;;
12359;SDS011;6244;51.460;7.090;2023-07-24T14:35:38;5.28;;;3.08;;
12359;SDS011;6244;51.460;7.090;2023-07-24T14:40:34;6.68;;;3.60;;
12359;SDS011;6244;51.460;7.090;2023-07-24T14:45:31;4.75;;;3.40;;
12359;SDS011;6244;51.460;7.090;2023-07-24T14:50:29;5.65;;;3.00;;
12359;SDS011;6244;51.460;7.090;2023-07-24T14:55:25;4.82;;;3.60;;
12359;SDS011;6244;51.460;7.090;2023-07-24T15:00:22;7.25;;;4.65;;
12359;SDS011;6244;51.460;7.090;2023-07-24T15:05:18;7.55;;;4.43;;
12359;SDS011;6244;51.460;7.090;2023-07-24T15:10:16;9.82;;;5.35;;
12359;SDS011;6244;51.460;7.090;2023-07-24T15:15:13;5.90;;;4.40;;
12359;SDS011;6244;51.460;7.090;2023-07-24T15:20:09;8.20;;;5.10;;
12359;SDS011;6244;51.460;7.090;2023-07-24T15:25:08;6.32;;;4.40;;
12359;SDS011;6244;51.460;7.090;2023-07-24T15:30:06;7.55;;;4.28;;
12359;SDS011;6244;51.460;7.090;2023-07-24T15:35:04;5.22;;;3.80;;
12359;SDS011;6244;51.460;7.090;2023-07-24T15:40:01;5.40;;;3.40;;
12359;SDS011;6244;51.460;7.090;2023-07-24T15:44:57;5.15;;;3.88;;
12359;SDS011;6244;51.460;7.090;2023-07-24T15:49:56;6.07;;;3.97;;
12359;SDS011;6244;51.460;7.090;2023-07-24T15:54:53;5.13;;;3.78;;
12359;SDS011;6244;51.460;7.090;2023-07-24T15:59:50;8.18;;;4.25;;
12359;SDS011;6244;51.460;7.090;2023-07-24T16:04:49;5.20;;;3.88;;
12359;SDS011;6244;51.460;7.090;2023-07-24T16:09:48;6.10;;;4.18;;
12359;SDS011;6244;51.460;7.090;2023-07-24T16:14:45;7.75;;;5.43;;
12359;SDS011;6244;51.460;7.090;2023-07-24T16:19:44;7.50;;;5.10;;
12359;SDS011;6244;51.460;7.090;2023-07-24T16:24:41;8.70;;;5.70;;
12359;SDS011;6244;51.460;7.090;2023-07-24T16:29:38;8.38;;;5.65;;
12359;SDS011;6244;51.460;7.090;2023-07-24T16:34:35;8.07;;;5.88;;
12359;SDS011;6244;51.460;7.090;2023-07-24T16:39:32;7.20;;;5.82;;
12359;SDS011;6244;51.460;7.090;2023-07-24T16:44:28;9.35;;;6.65;;
12359;SDS011;6244;51.460;7.090;2023-07-24T16:49:27;7.88;;;6.07;;
12359;SDS011;6244;51.460;7.090;2023-07-24T16:54:23;8.48;;;5.65;;
12359;SDS011;6244;51.460;7.090;2023-07-24T16:59:20;8.52;;;6.05;;
12359;SDS011;6244;51.460;7.090;2023-07-24T17:04:17;7.03;;;5.80;;
12359;SDS011;6244;51.460;7.090;2023-07-24T17:09:15;6.60;;;4.63;;
12359;SDS011;6244;51.460;7.090;2023-07-24T17:14:13;7.82;;;5.15;;
12359;SDS011;6244;51.460;7.090;2023-07-24T17:19:09;7.30;;;5.78;;
12359;SDS011;6244;51.460;7.090;2023-07-24T17:24:06;8.05;;;5.25;;
12359;SDS011;6244;51.460;7.090;2023-07-24T17:29:04;9.65;;;5.60;;
12359;SDS011;6244;51.460;7.090;2023-07-24T17:34:00;7.88;;;5.63;;
12359;SDS011;6244;51.460;7.090;2023-07-24T17:38:58;6.72;;;5.25;;
12359;SDS011;6244;51.460;7.090;2023-07-24T17:43:56;8.48;;;5.95;;
12359;SDS011;6244;51.460;7.090;2023-07-24T17:48:53;7.38;;;5.78;;
12359;SDS011;6244;51.460;7.090;2023-07-24T17:53:50;10.02;;;6.18;;
12359;SDS011;6244;51.460;7.090;2023-07-24T17:58:47;8.38;;;5.72;;
12359;SDS011;6244;51.460;7.090;2023-07-24T18:03:43;8.75;;;5.38;;
12359;SDS011;6244;51.460;7.090;2023-07-24T18:08:41;7.22;;;4.85;;
12359;SDS011;6244;51.460;7.090;2023-07-24T18:13:38;7.65;;;5.40;;
12359;SDS011;6244;51.460;7.090;2023-07-24T18:18:35;7.78;;;5.68;;
12359;SDS011;6244;51.460;7.090;2023-07-24T18:23:31;8.50;;;5.85;;
12359;SDS011;6244;51.460;7.090;2023-07-24T18:28:29;7.72;;;5.07;;
12359;SDS011;6244;51.460;7.090;2023-07-24T18:33:26;7.53;;;4.72;;
12359;SDS011;6244;51.460;7.090;2023-07-24T18:38:22;8.68;;;4.65;;
12359;SDS011;6244;51.460;7.090;2023-07-24T18:43:19;7.05;;;3.72;;
12359;SDS011;6244;51.460;7.090;2023-07-24T18:48:17;8.20;;;4.50;;
12359;SDS011;6244;51.460;7.090;2023-07-24T18:53:13;9.00;;;4.75;;
12359;SDS011;6244;51.460;7.090;2023-07-24T18:58:12;6.65;;;4.63;;
12359;SDS011;6244;51.460;7.090;2023-07-24T19:03:09;7.18;;;4.20;;
12359;SDS011;6244;51.460;7.090;2023-07-24T19:08:07;9.57;;;4.97;;
12359;SDS011;6244;51.460;7.090;2023-07-24T19:13:04;7.65;;;5.30;;
12359;SDS011;6244;51.460;7.090;2023-07-24T19:18:01;6.68;;;4.80;;
12359;SDS011;6244;51.460;7.090;2023-07-24T19:22:58;8.23;;;5.20;;
12359;SDS011;6244;51.460;7.090;2023-07-24T19:27:56;7.35;;;5.32;;
12359;SDS011;6244;51.460;7.090;2023-07-24T19:32:53;8.05;;;4.97;;
12359;SDS011;6244;51.460;7.090;2023-07-24T19:37:50;9.50;;;6.32;;
12359;SDS011;6244;51.460;7.090;2023-07-24T19:42:48;8.32;;;5.95;;
12359;SDS011;6244;51.460;7.090;2023-07-24T19:47:46;10.85;;;6.85;;
12359;SDS011;6244;51.460;7.090;2023-07-24T19:52:43;12.48;;;7.65;;
12359;SDS011;6244;51.460;7.090;2023-07-24T19:57:43;9.35;;;6.90;;
12359;SDS011;6244;51.460;7.090;2023-07-24T20:02:40;11.35;;;6.50;;
12359;SDS011;6244;51.460;7.090;2023-07-24T20:07:39;16.17;;;7.93;;
12359;SDS011;6244;51.460;7.090;2023-07-24T20:12:36;16.52;;;7.72;;
12359;SDS011;6244;51.460;7.090;2023-07-24T20:17:32;8.68;;;5.32;;
12359;SDS011;6244;51.460;7.090;2023-07-24T20:22:29;8.18;;;5.68;;
12359;SDS011;6244;51.460;7.090;2023-07-24T20:27:27;9.07;;;5.00;;
12359;SDS011;6244;51.460;7.090;2023-07-24T20:32:23;6.60;;;4.65;;
12359;SDS011;6244;51.460;7.090;2023-07-24T20:37:20;9.13;;;5.38;;
12359;SDS011;6244;51.460;7.090;2023-07-24T20:42:16;8.68;;;6.25;;
12359;SDS011;6244;51.460;7.090;2023-07-24T20:47:14;9.13;;;6.00;;
12359;SDS011;6244;51.460;7.090;2023-07-24T20:52:11;9.30;;;6.28;;
12359;SDS011;6244;51.460;7.090;2023-07-24T20:57:07;10.32;;;6.57;;
12359;SDS011;6244;51.460;7.090;2023-07-24T21:02:04;10.65;;;6.55;;
12359;SDS011;6244;51.460;7.090;2023-07-24T21:07:03;9.10;;;6.20;;
12359;SDS011;6244;51.460;7.090;2023-07-24T21:11:59;10.13;;;6.60;;
12359;SDS011;6244;51.460;7.090;2023-07-24T21:16:56;8.95;;;5.78;;
12359;SDS011;6244;51.460;7.090;2023-07-24T21:21:53;9.65;;;5.88;;
12359;SDS011;6244;51.460;7.090;2023-07-24T21:26:51;7.20;;;5.07;;
12359;SDS011;6244;51.460;7.090;2023-07-24T21:31:47;9.48;;;4.72;;
12359;SDS011;6244;51.460;7.090;2023-07-24T21:36:44;6.95;;;4.35;;
12359;SDS011;6244;51.460;7.090;2023-07-24T21:41:40;6.20;;;4.35;;
12359;SDS011;6244;51.460;7.090;2023-07-24T21:46:38;7.65;;;4.45;;
12359;SDS011;6244;51.460;7.090;2023-07-24T21:51:36;6.47;;;4.25;;
12359;SDS011;6244;51.460;7.090;2023-07-24T21:56:33;6.72;;;3.90;;
12359;SDS011;6244;51.460;7.090;2023-07-24T22:01:29;6.47;;;4.05;;
12359;SDS011;6244;51.460;7.090;2023-07-24T22:06:27;6.82;;;4.05;;
12359;SDS011;6244;51.460;7.090;2023-07-24T22:11:23;7.88;;;3.83;;
12359;SDS011;6244;51.460;7.090;2023-07-24T22:16:20;5.82;;;3.50;;
12359;SDS011;6244;51.460;7.090;2023-07-24T22:21:17;7.53;;;3.50;;
12359;SDS011;6244;51.460;7.090;2023-07-24T22:26:15;4.22;;;2.88;;
12359;SDS011;6244;51.460;7.090;2023-07-24T22:31:11;3.97;;;3.22;;
12359;SDS011;6244;51.460;7.090;2023-07-24T22:36:08;6.45;;;3.50;;
12359;SDS011;6244;51.460;7.090;2023-07-24T22:41:08;5.78;;;3.20;;
12359;SDS011;6244;51.460;7.090;2023-07-24T22:46:06;8.68;;;3.45;;
12359;SDS011;6244;51.460;7.090;2023-07-24T22:51:03;5.55;;;3.20;;
12359;SDS011;6244;51.460;7.090;2023-07-24T22:55:59;6.22;;;3.70;;
12359;SDS011;6244;51.460;7.090;2023-07-24T23:00:56;4.78;;;3.28;;
12359;SDS011;6244;51.460;7.090;2023-07-24T23:05:54;5.97;;;3.30;;
12359;SDS011;6244;51.460;7.090;2023-07-24T23:10:50;6.35;;;3.67;;
12359;SDS011;6244;51.460;7.090;2023-07-24T23:15:47;7.85;;;3.92;;
12359;SDS011;6244;51.460;7.090;2023-07-24T23:20:43;6.53;;;3.47;;
12359;SDS011;6244;51.460;7.090;2023-07-24T23:25:41;5.93;;;3.55;;
12359;SDS011;6244;51.460;7.090;2023-07-24T23:30:38;5.53;;;3.30;;
12359;SDS011;6244;51.460;7.090;2023-07-24T23:35:35;5.70;;;3.40;;
12359;SDS011;6244;51.460;7.090;2023-07-24T23:40:32;5.10;;;3.50;;
12359;SDS011;6244;51.460;7.090;2023-07-24T23:45:32;7.75;;;3.45;;
12359;SDS011;6244;51.460;7.090;2023-07-24T23:50:28;5.32;;;4.03;;
12359;SDS011;6244;51.460;7.090;2023-07-24T23:55:25;9.15;;;3.90;;
